Time,TemperatureF,DewpointF,PressureIn,WindDirection,WindDirectionDegrees,WindSpeedMPH,WindSpeedGustMPH,Humidity,HourlyPrecipIn,Conditions,Clouds,dailyrainin,SoftwareType,DateUTC
2013-03-13 00:00:00,48.7,40.8,30.25,NW,309,0.0,0.0,74,0.00,,,0.00,meteohub,2013-03-13 05:00:00,
2013-03-13 00:05:00,48.6,40.3,30.25,NW,309,0.0,0.0,73,0.00,,,0.00,meteohub,2013-03-13 05:05:00,
2013-03-13 00:10:00,48.6,39.9,30.25,NW,309,0.0,0.0,72,0.00,,,0.00,meteohub,2013-03-13 05:10:00,
2013-03-13 00:15:00,48.6,41.0,30.25,NW,309,0.0,0.0,75,0.00,,,0.00,meteohub,2013-03-13 05:15:00,
2013-03-13 00:20:00,48.4,41.5,30.25,NW,309,0.0,0.0,77,0.00,,,0.00,meteohub,2013-03-13 05:20:00,
2013-03-13 00:25:00,48.4,41.9,30.25,NW,309,0.0,1.0,78,0.00,,,0.00,meteohub,2013-03-13 05:25:00,
2013-03-13 00:30:00,48.4,41.5,30.25,NW,309,0.0,1.0,77,0.00,,,0.00,meteohub,2013-03-13 05:30:00,
2013-03-13 00:35:00,48.2,41.7,30.25,NW,309,0.0,1.0,78,0.00,,,0.00,meteohub,2013-03-13 05:35:00,
2013-03-13 00:40:00,48.0,41.9,30.25,NW,309,1.0,1.0,79,0.00,,,0.00,meteohub,2013-03-13 05:40:00,
2013-03-13 00:45:00,48.0,41.9,30.26,NW,309,0.0,2.0,79,0.00,,,0.00,meteohub,2013-03-13 05:45:00,
2013-03-13 00:51:00,48.0,41.5,30.26,NW,309,0.0,2.0,78,0.00,,,0.00,meteohub,2013-03-13 05:51:00,
2013-03-13 00:56:00,47.8,40.6,30.26,NW,309,0.0,2.0,76,0.00,,,0.00,meteohub,2013-03-13 05:56:00,
2013-03-13 01:01:00,47.8,40.6,30.26,NW,309,0.0,1.0,76,0.00,,,0.00,meteohub,2013-03-13 06:01:00,
2013-03-13 01:06:00,47.7,41.2,30.26,NW,309,0.0,0.0,78,0.00,,,0.00,meteohub,2013-03-13 06:06:00,
2013-03-13 01:11:00,47.5,41.0,30.26,NW,309,0.0,0.0,78,0.00,,,0.00,meteohub,2013-03-13 06:11:00,
2013-03-13 01:16:00,47.1,40.3,30.26,NW,309,0.0,0.0,77,0.00,,,0.00,meteohub,2013-03-13 06:16:00,
2013-03-13 01:21:00,47.1,39.9,30.27,NW,309,0.0,0.0,76,0.00,,,0.00,meteohub,2013-03-13 06:21:00,
2013-03-13 01:26:00,47.1,39.9,30.27,NW,309,0.0,0.0,76,0.00,,,0.00,meteohub,2013-03-13 06:26:00,
2013-03-13 01:31:00,47.1,40.3,30.27,NW,309,0.0,0.0,77,0.00,,,0.00,meteohub,2013-03-13 06:31:00,
2013-03-13 01:36:00,47.3,40.8,30.27,NW,309,1.0,1.0,78,0.00,,,0.00,meteohub,2013-03-13 06:36:00,
2013-03-13 01:41:00,47.3,41.2,30.27,NW,309,0.0,1.0,79,0.00,,,0.00,meteohub,2013-03-13 06:41:00,
2013-03-13 01:46:00,46.9,40.1,30.27,NW,309,0.0,1.0,77,0.00,,,0.00,meteohub,2013-03-13 06:46:00,
2013-03-13 01:51:00,46.6,40.8,30.27,NW,309,0.0,1.0,80,0.00,,,0.00,meteohub,2013-03-13 06:51:00,
2013-03-13 01:56:00,46.2,40.6,30.27,NW,309,0.0,0.0,81,0.00,,,0.00,meteohub,2013-03-13 06:56:00,
2013-03-13 02:01:00,46.0,40.3,30.27,NW,309,0.0,1.0,80,0.00,,,0.00,meteohub,2013-03-13 07:01:00,
2013-03-13 02:06:00,46.0,40.8,30.27,NW,309,1.0,1.0,82,0.00,,,0.00,meteohub,2013-03-13 07:06:00,
2013-03-13 02:11:00,46.0,41.5,30.27,NW,309,1.0,1.0,84,0.00,,,0.00,meteohub,2013-03-13 07:11:00,
2013-03-13 02:17:00,46.2,41.7,30.27,NW,309,0.0,1.0,84,0.00,,,0.00,meteohub,2013-03-13 07:17:00,
2013-03-13 02:22:00,46.2,41.4,30.27,NW,309,0.0,1.0,83,0.00,,,0.00,meteohub,2013-03-13 07:22:00,
2013-03-13 02:27:00,46.0,40.8,30.27,NW,309,0.0,1.0,82,0.00,,,0.00,meteohub,2013-03-13 07:27:00,
2013-03-13 02:32:00,45.9,40.3,30.27,NW,309,0.0,0.0,81,0.00,,,0.00,meteohub,2013-03-13 07:32:00,
2013-03-13 02:37:00,45.7,40.8,30.27,NW,309,0.0,0.0,83,0.00,,,0.00,meteohub,2013-03-13 07:37:00,
2013-03-13 02:42:00,45.5,40.6,30.27,NW,309,0.0,0.0,83,0.00,,,0.00,meteohub,2013-03-13 07:42:00,
2013-03-13 02:47:00,45.5,41.0,30.27,NW,309,0.0,0.0,84,0.00,,,0.00,meteohub,2013-03-13 07:47:00,
2013-03-13 02:52:00,45.5,41.0,30.27,NW,309,0.0,0.0,84,0.00,,,0.00,meteohub,2013-03-13 07:52:00,
2013-03-13 02:57:00,45.3,40.8,30.27,NW,309,0.0,0.0,84,0.00,,,0.00,meteohub,2013-03-13 07:57:00,
2013-03-13 03:03:00,45.1,40.6,30.27,NW,309,0.0,0.0,84,0.00,,,0.00,meteohub,2013-03-13 08:03:00,
2013-03-13 03:08:00,45.1,40.3,30.27,NW,309,0.0,0.0,83,0.00,,,0.00,meteohub,2013-03-13 08:08:00,
2013-03-13 03:13:00,45.0,40.5,30.27,NW,309,0.0,0.0,84,0.00,,,0.00,meteohub,2013-03-13 08:13:00,
2013-03-13 03:18:00,44.8,40.5,30.27,NW,309,0.0,0.0,85,0.00,,,0.00,meteohub,2013-03-13 08:18:00,
2013-03-13 03:23:00,44.6,40.5,30.27,NW,309,0.0,0.0,85,0.00,,,0.00,meteohub,2013-03-13 08:23:00,
2013-03-13 03:28:00,44.6,40.5,30.27,NW,309,0.0,0.0,85,0.00,,,0.00,meteohub,2013-03-13 08:28:00,
2013-03-13 03:33:00,44.4,40.5,30.27,NW,309,0.0,0.0,86,0.00,,,0.00,meteohub,2013-03-13 08:33:00,
2013-03-13 03:38:00,44.4,40.8,30.27,NW,309,0.0,0.0,87,0.00,,,0.00,meteohub,2013-03-13 08:38:00,
2013-03-13 03:43:00,44.4,40.8,30.27,NW,309,0.0,0.0,87,0.00,,,0.00,meteohub,2013-03-13 08:43:00,
2013-03-13 03:48:00,44.4,41.2,30.27,NW,309,0.0,0.0,88,0.00,,,0.00,meteohub,2013-03-13 08:48:00,
2013-03-13 03:53:00,44.4,41.2,30.27,NW,309,0.0,0.0,88,0.00,,,0.00,meteohub,2013-03-13 08:53:00,
2013-03-13 03:58:00,44.2,41.0,30.28,NW,309,0.0,0.0,88,0.00,,,0.00,meteohub,2013-03-13 08:58:00,
2013-03-13 04:03:00,44.1,40.8,30.28,NW,309,0.0,0.0,88,0.00,,,0.00,meteohub,2013-03-13 09:03:00,
2013-03-13 04:08:00,43.9,40.6,30.28,NW,309,0.0,0.0,88,0.00,,,0.00,meteohub,2013-03-13 09:08:00,
2013-03-13 04:13:00,43.5,40.3,30.28,NW,309,0.0,0.0,88,0.00,,,0.00,meteohub,2013-03-13 09:13:00,
2013-03-13 04:18:00,43.5,40.5,30.28,NW,309,0.0,0.0,89,0.00,,,0.00,meteohub,2013-03-13 09:18:00,
2013-03-13 04:23:00,43.3,40.3,30.28,NW,309,0.0,0.0,89,0.00,,,0.00,meteohub,2013-03-13 09:23:00,
2013-03-13 04:28:00,43.2,40.1,30.28,NW,309,0.0,0.0,89,0.00,,,0.00,meteohub,2013-03-13 09:28:00,
2013-03-13 04:33:00,43.2,40.1,30.28,NW,309,0.0,0.0,89,0.00,,,0.00,meteohub,2013-03-13 09:33:00,
2013-03-13 04:39:00,43.0,39.9,30.29,NW,309,0.0,0.0,89,0.00,,,0.00,meteohub,2013-03-13 09:39:00,
2013-03-13 04:44:00,42.8,39.7,30.29,NW,309,0.0,0.0,89,0.00,,,0.00,meteohub,2013-03-13 09:44:00,
2013-03-13 04:49:00,42.8,40.1,30.29,NW,309,0.0,0.0,90,0.00,,,0.00,meteohub,2013-03-13 09:49:00,
2013-03-13 04:54:00,42.8,40.3,30.29,NW,309,0.0,0.0,91,0.00,,,0.00,meteohub,2013-03-13 09:54:00,
2013-03-13 04:59:00,43.0,40.5,30.29,NW,309,0.0,0.0,91,0.00,,,0.00,meteohub,2013-03-13 09:59:00,
2013-03-13 05:04:00,43.0,40.8,30.29,NW,309,0.0,0.0,92,0.00,,,0.00,meteohub,2013-03-13 10:04:00,
2013-03-13 05:09:00,43.2,41.4,30.29,NW,309,0.0,0.0,93,0.00,,,0.00,meteohub,2013-03-13 10:09:00,
2013-03-13 05:14:00,43.2,41.4,30.30,NW,309,0.0,0.0,93,0.00,,,0.00,meteohub,2013-03-13 10:14:00,
2013-03-13 05:19:00,43.0,40.8,30.30,NW,309,0.0,0.0,92,0.00,,,0.00,meteohub,2013-03-13 10:19:00,
2013-03-13 05:24:00,43.0,40.8,30.30,NW,309,0.0,0.0,92,0.00,,,0.00,meteohub,2013-03-13 10:24:00,
2013-03-13 05:29:00,43.0,40.8,30.30,NW,309,0.0,0.0,92,0.00,,,0.00,meteohub,2013-03-13 10:29:00,
2013-03-13 05:34:00,42.6,40.5,30.30,NW,309,0.0,0.0,92,0.00,,,0.00,meteohub,2013-03-13 10:34:00,
2013-03-13 05:39:00,42.6,40.5,30.30,NW,309,0.0,0.0,92,0.00,,,0.00,meteohub,2013-03-13 10:39:00,
2013-03-13 05:44:00,42.4,40.6,30.31,NW,309,0.0,0.0,93,0.00,,,0.00,meteohub,2013-03-13 10:44:00,
2013-03-13 05:49:00,42.4,40.6,30.31,NW,309,0.0,0.0,93,0.00,,,0.00,meteohub,2013-03-13 10:49:00,
2013-03-13 05:54:00,42.3,40.5,30.31,NW,309,0.0,0.0,93,0.00,,,0.00,meteohub,2013-03-13 10:54:00,
2013-03-13 05:59:00,42.1,40.3,30.32,NW,309,0.0,0.0,93,0.00,,,0.00,meteohub,2013-03-13 10:59:00,
2013-03-13 06:04:00,41.7,39.9,30.32,NW,309,0.0,0.0,93,0.00,,,0.00,meteohub,2013-03-13 11:04:00,
2013-03-13 06:09:00,41.4,39.2,30.32,NW,309,0.0,0.0,92,0.00,,,0.00,meteohub,2013-03-13 11:09:00,
2013-03-13 06:14:00,41.2,39.4,30.32,NW,309,0.0,0.0,93,0.00,,,0.00,meteohub,2013-03-13 11:14:00,
2013-03-13 06:19:00,41.4,39.7,30.33,NW,309,0.0,0.0,94,0.00,,,0.00,meteohub,2013-03-13 11:19:00,
2013-03-13 06:24:00,41.4,39.7,30.33,NW,309,0.0,0.0,94,0.00,,,0.00,meteohub,2013-03-13 11:24:00,
2013-03-13 06:29:00,41.2,39.4,30.33,NW,309,0.0,0.0,93,0.00,,,0.00,meteohub,2013-03-13 11:29:00,
2013-03-13 06:34:00,41.2,39.6,30.34,NW,309,0.0,0.0,94,0.00,,,0.00,meteohub,2013-03-13 11:34:00,
2013-03-13 06:39:00,41.4,39.7,30.34,NW,309,0.0,0.0,94,0.00,,,0.00,meteohub,2013-03-13 11:39:00,
2013-03-13 06:44:00,41.5,39.9,30.34,NW,309,1.0,0.0,94,0.00,,,0.00,meteohub,2013-03-13 11:44:00,
2013-03-13 06:49:00,41.7,39.9,30.34,NW,309,1.0,2.0,93,0.00,,,0.00,meteohub,2013-03-13 11:49:00,
2013-03-13 06:54:00,41.9,40.1,30.35,NW,309,0.0,2.0,93,0.00,,,0.00,meteohub,2013-03-13 11:54:00,
2013-03-13 06:59:00,42.1,40.3,30.35,NW,309,2.0,2.0,93,0.00,,,0.00,meteohub,2013-03-13 11:59:00,
2013-03-13 07:04:00,42.1,40.3,30.35,NW,309,1.0,2.0,93,0.00,,,0.00,meteohub,2013-03-13 12:04:00,
2013-03-13 07:09:00,42.3,40.5,30.35,NW,309,1.0,2.0,93,0.00,,,0.00,meteohub,2013-03-13 12:09:00,
2013-03-13 07:14:00,42.4,40.3,30.36,NW,309,1.0,2.0,92,0.00,,,0.00,meteohub,2013-03-13 12:14:00,
2013-03-13 07:19:00,42.6,40.5,30.36,NNW,342,2.0,2.0,92,0.00,,,0.00,meteohub,2013-03-13 12:19:00,
2013-03-13 07:24:00,43.0,40.5,30.36,NNW,342,2.0,2.0,91,0.00,,,0.00,meteohub,2013-03-13 12:24:00,
2013-03-13 07:29:00,43.5,41.0,30.36,NNW,342,2.0,3.0,91,0.00,,,0.00,meteohub,2013-03-13 12:29:00,
2013-03-13 07:34:00,44.4,41.2,30.37,NNW,340,3.0,3.0,88,0.00,,,0.00,meteohub,2013-03-13 12:34:00,
2013-03-13 07:39:00,45.3,41.0,30.37,NNW,348,4.0,4.0,85,0.00,,,0.00,meteohub,2013-03-13 12:39:00,
2013-03-13 07:44:00,46.6,41.4,30.37,WNW,302,4.0,5.0,82,0.00,,,0.00,meteohub,2013-03-13 12:44:00,
2013-03-13 07:49:00,47.5,41.4,30.37,NW,313,4.0,8.0,79,0.00,,,0.00,meteohub,2013-03-13 12:49:00,
2013-03-13 07:54:00,47.8,41.0,30.38,NNW,342,4.0,8.0,77,0.00,,,0.00,meteohub,2013-03-13 12:54:00,
2013-03-13 07:59:00,48.2,41.0,30.38,NW,311,3.0,8.0,76,0.00,,,0.00,meteohub,2013-03-13 12:59:00,
2013-03-13 08:04:00,48.6,41.0,30.38,North,5,0.0,7.0,75,0.00,,,0.00,meteohub,2013-03-13 13:04:00,
2013-03-13 08:09:00,48.7,40.8,30.38,NNW,329,0.0,7.0,74,0.00,,,0.00,meteohub,2013-03-13 13:09:00,
2013-03-13 08:14:00,49.1,40.8,30.38,WNW,286,0.0,7.0,73,0.00,,,0.00,meteohub,2013-03-13 13:14:00,
2013-03-13 08:19:00,49.6,41.0,30.39,North,5,0.0,8.0,72,0.00,,,0.00,meteohub,2013-03-13 13:19:00,
2013-03-13 08:24:00,50.2,41.2,30.39,North,355,2.0,8.0,71,0.00,,,0.00,meteohub,2013-03-13 13:24:00,
2013-03-13 08:30:00,50.9,40.6,30.39,NNE,27,1.0,8.0,68,0.00,,,0.00,meteohub,2013-03-13 13:30:00,
2013-03-13 08:35:00,51.4,40.8,30.39,NNE,26,2.0,7.0,67,0.00,,,0.00,meteohub,2013-03-13 13:35:00,
2013-03-13 08:40:00,52.0,41.0,30.39,East,84,2.0,9.0,66,0.00,,,0.00,meteohub,2013-03-13 13:40:00,
2013-03-13 08:45:00,52.3,41.4,30.40,NNW,335,3.0,9.0,66,0.00,,,0.00,meteohub,2013-03-13 13:45:00,
2013-03-13 08:50:00,52.5,40.3,30.40,North,5,3.0,9.0,63,0.00,,,0.00,meteohub,2013-03-13 13:50:00,
2013-03-13 08:55:00,52.7,40.5,30.40,NW,317,4.0,11.0,63,0.00,,,0.00,meteohub,2013-03-13 13:55:00,
2013-03-13 09:00:00,53.1,40.5,30.40,NE,48,3.0,11.0,62,0.00,,,0.00,meteohub,2013-03-13 14:00:00,
2013-03-13 09:05:00,53.4,41.2,30.40,NNE,30,3.0,9.0,63,0.00,,,0.00,meteohub,2013-03-13 14:05:00,
2013-03-13 09:10:00,54.0,40.5,30.40,North,355,6.0,8.0,60,0.00,,,0.00,meteohub,2013-03-13 14:10:00,
2013-03-13 09:15:00,54.0,39.9,30.41,NNE,30,3.0,8.0,59,0.00,,,0.00,meteohub,2013-03-13 14:15:00,
2013-03-13 09:20:00,54.3,39.9,30.41,NW,320,3.0,8.0,58,0.00,,,0.00,meteohub,2013-03-13 14:20:00,
2013-03-13 09:25:00,54.3,39.9,30.42,NE,36,4.0,8.0,58,0.00,,,0.00,meteohub,2013-03-13 14:25:00,
2013-03-13 09:30:00,54.7,39.4,30.42,North,350,3.0,8.0,56,0.00,,,0.00,meteohub,2013-03-13 14:30:00,
2013-03-13 09:35:00,54.9,39.9,30.42,NE,35,1.0,10.0,57,0.00,,,0.00,meteohub,2013-03-13 14:35:00,
2013-03-13 09:40:00,55.0,39.2,30.41,North,11,2.0,11.0,55,0.00,,,0.00,meteohub,2013-03-13 14:40:00,
2013-03-13 09:45:00,55.4,39.0,30.42,NW,317,5.0,11.0,54,0.00,,,0.00,meteohub,2013-03-13 14:45:00,
2013-03-13 09:50:00,55.6,39.2,30.42,West,278,2.0,12.0,54,0.00,,,0.00,meteohub,2013-03-13 14:50:00,
2013-03-13 09:55:00,55.9,38.1,30.42,WNW,298,8.0,12.0,51,0.00,,,0.00,meteohub,2013-03-13 14:55:00,
2013-03-13 10:00:00,55.8,37.4,30.42,NNW,346,4.0,12.0,50,0.00,,,0.00,meteohub,2013-03-13 15:00:00,
2013-03-13 10:05:00,55.9,37.0,30.42,NW,317,6.0,12.0,49,0.00,,,0.00,meteohub,2013-03-13 15:05:00,
2013-03-13 10:10:00,56.3,37.9,30.42,North,9,4.0,12.0,50,0.00,,,0.00,meteohub,2013-03-13 15:10:00,
2013-03-13 10:15:00,56.7,37.2,30.43,NNW,328,7.0,12.0,48,0.00,,,0.00,meteohub,2013-03-13 15:15:00,
2013-03-13 10:20:00,56.8,36.9,30.43,SW,229,5.0,11.0,47,0.00,,,0.00,meteohub,2013-03-13 15:20:00,
2013-03-13 10:25:00,57.4,37.9,30.43,NNE,13,5.0,11.0,48,0.00,,,0.00,meteohub,2013-03-13 15:25:00,
2013-03-13 10:30:00,57.6,35.8,30.43,East,95,5.0,11.0,44,0.00,,,0.00,meteohub,2013-03-13 15:30:00,
2013-03-13 10:35:00,57.7,34.9,30.43,NNW,334,5.0,10.0,42,0.00,,,0.00,meteohub,2013-03-13 15:35:00,
2013-03-13 10:40:00,57.9,35.6,30.43,NNW,340,3.0,10.0,43,0.00,,,0.00,meteohub,2013-03-13 15:40:00,
2013-03-13 10:45:00,58.5,34.2,30.43,NW,325,6.0,13.0,40,0.00,,,0.00,meteohub,2013-03-13 15:45:00,
2013-03-13 10:50:00,58.6,35.6,30.43,NE,49,5.0,13.0,42,0.00,,,0.00,meteohub,2013-03-13 15:50:00,
2013-03-13 10:55:00,59.2,35.4,30.43,NE,52,4.0,10.0,41,0.00,,,0.00,meteohub,2013-03-13 15:55:00,
2013-03-13 11:00:00,59.4,35.6,30.43,North,355,4.0,10.0,41,0.00,,,0.00,meteohub,2013-03-13 16:00:00,
2013-03-13 11:05:00,59.7,36.0,30.43,NW,307,3.0,10.0,41,0.00,,,0.00,meteohub,2013-03-13 16:05:00,
2013-03-13 11:10:00,60.1,35.6,30.43,NNW,344,4.0,10.0,40,0.00,,,0.00,meteohub,2013-03-13 16:10:00,
2013-03-13 11:15:00,60.3,35.8,30.43,NW,325,3.0,10.0,40,0.00,,,0.00,meteohub,2013-03-13 16:15:00,
2013-03-13 11:20:00,60.4,36.0,30.43,NE,36,5.0,10.0,40,0.00,,,0.00,meteohub,2013-03-13 16:20:00,
2013-03-13 11:25:00,60.6,36.9,30.43,NE,38,4.0,8.0,41,0.00,,,0.00,meteohub,2013-03-13 16:25:00,
2013-03-13 11:30:00,61.3,36.1,30.43,North,355,2.0,8.0,39,0.00,,,0.00,meteohub,2013-03-13 16:30:00,
2013-03-13 11:35:00,61.7,34.5,30.43,NNW,339,7.0,10.0,36,0.00,,,0.00,meteohub,2013-03-13 16:35:00,
2013-03-13 11:40:00,61.5,34.3,30.43,ENE,76,3.0,10.0,36,0.00,,,0.00,meteohub,2013-03-13 16:40:00,
2013-03-13 11:45:00,62.1,34.9,30.43,NE,40,3.0,10.0,36,0.00,,,0.00,meteohub,2013-03-13 16:45:00,
2013-03-13 11:50:00,61.9,34.7,30.43,ENE,66,4.0,10.0,36,0.00,,,0.00,meteohub,2013-03-13 16:50:00,
2013-03-13 11:55:00,61.9,34.0,30.43,NNW,336,5.0,10.0,35,0.00,,,0.00,meteohub,2013-03-13 16:55:00,
2013-03-13 12:00:00,62.1,34.9,30.42,NW,321,7.0,12.0,36,0.00,,,0.00,meteohub,2013-03-13 17:00:00,
2013-03-13 12:05:00,62.1,32.5,30.43,NNW,344,7.0,14.0,33,0.00,,,0.00,meteohub,2013-03-13 17:05:00,
2013-03-13 12:10:00,61.9,33.3,30.42,NW,324,4.0,14.0,34,0.00,,,0.00,meteohub,2013-03-13 17:10:00,
2013-03-13 12:15:00,61.7,33.8,30.42,NW,313,7.0,14.0,35,0.00,,,0.00,meteohub,2013-03-13 17:15:00,
2013-03-13 12:20:00,61.9,34.7,30.42,WSW,250,3.0,13.0,36,0.00,,,0.00,meteohub,2013-03-13 17:20:00,
2013-03-13 12:25:00,61.9,34.0,30.42,WNW,290,4.0,11.0,35,0.00,,,0.00,meteohub,2013-03-13 17:25:00,
2013-03-13 12:30:00,61.5,34.3,30.41,NNW,348,6.0,11.0,36,0.00,,,0.00,meteohub,2013-03-13 17:30:00,
2013-03-13 12:35:00,62.2,34.9,30.41,North,5,4.0,13.0,36,0.00,,,0.00,meteohub,2013-03-13 17:35:00,
2013-03-13 12:40:00,62.8,32.5,30.41,NW,307,2.0,13.0,32,0.00,,,0.00,meteohub,2013-03-13 17:40:00,
2013-03-13 12:45:00,62.8,32.5,30.41,NW,314,4.0,13.0,32,0.00,,,0.00,meteohub,2013-03-13 17:45:00,
2013-03-13 12:50:00,63.3,33.8,30.40,WNW,288,8.0,12.0,33,0.00,,,0.00,meteohub,2013-03-13 17:50:00,
2013-03-13 12:55:00,63.7,34.0,30.40,North,355,6.0,17.0,33,0.00,,,0.00,meteohub,2013-03-13 17:55:00,
2013-03-13 13:00:00,63.5,34.7,30.40,West,281,8.0,17.0,34,0.00,,,0.00,meteohub,2013-03-13 18:00:00,
2013-03-13 13:06:00,63.1,33.6,30.40,North,355,3.0,17.0,33,0.00,,,0.00,meteohub,2013-03-13 18:06:00,
2013-03-13 13:11:00,63.7,34.0,30.39,NNW,341,11.0,12.0,33,0.00,,,0.00,meteohub,2013-03-13 18:11:00,
2013-03-13 13:16:00,63.7,32.5,30.39,NW,306,3.0,14.0,31,0.00,,,0.00,meteohub,2013-03-13 18:16:00,
2013-03-13 13:21:00,64.0,32.7,30.39,NW,323,9.0,14.0,31,0.00,,,0.00,meteohub,2013-03-13 18:21:00,
2013-03-13 13:26:00,63.9,30.9,30.38,NNW,328,10.0,15.0,29,0.00,,,0.00,meteohub,2013-03-13 18:26:00,
2013-03-13 13:31:00,63.7,32.5,30.38,WNW,283,6.0,16.0,31,0.00,,,0.00,meteohub,2013-03-13 18:31:00,
2013-03-13 13:36:00,63.7,31.6,30.38,NW,313,4.0,16.0,30,0.00,,,0.00,meteohub,2013-03-13 18:36:00,
2013-03-13 13:41:00,63.9,31.8,30.38,NW,323,7.0,14.0,30,0.00,,,0.00,meteohub,2013-03-13 18:41:00,
2013-03-13 13:46:00,64.0,30.2,30.38,West,269,10.0,16.0,28,0.00,,,0.00,meteohub,2013-03-13 18:46:00,
2013-03-13 13:51:00,63.7,30.7,30.37,NW,317,6.0,17.0,29,0.00,,,0.00,meteohub,2013-03-13 18:51:00,
2013-03-13 13:56:00,64.6,33.3,30.37,NW,310,6.0,17.0,31,0.00,,,0.00,meteohub,2013-03-13 18:56:00,
2013-03-13 14:01:00,65.1,26.4,30.37,NNW,348,9.0,15.0,23,0.00,,,0.00,meteohub,2013-03-13 19:01:00,
2013-03-13 14:06:00,65.1,27.5,30.37,NNW,341,9.0,13.0,24,0.00,,,0.00,meteohub,2013-03-13 19:06:00,
2013-03-13 14:11:00,65.1,29.3,30.36,West,272,8.0,16.0,26,0.00,,,0.00,meteohub,2013-03-13 19:11:00,
2013-03-13 14:16:00,64.9,29.3,30.36,NW,307,10.0,16.0,26,0.00,,,0.00,meteohub,2013-03-13 19:16:00,
2013-03-13 14:22:00,64.9,28.2,30.36,NNW,342,4.0,16.0,25,0.00,,,0.00,meteohub,2013-03-13 19:22:00,
2013-03-13 14:27:00,64.9,27.3,30.35,WNW,289,4.0,17.0,24,0.00,,,0.00,meteohub,2013-03-13 19:27:00,
2013-03-13 14:32:00,65.5,31.5,30.35,West,281,8.0,17.0,28,0.00,,,0.00,meteohub,2013-03-13 19:32:00,
2013-03-13 14:37:00,65.7,30.7,30.35,NNW,332,5.0,14.0,27,0.00,,,0.00,meteohub,2013-03-13 19:37:00,
2013-03-13 14:42:00,65.7,28.9,30.35,NNW,337,11.0,14.0,25,0.00,,,0.00,meteohub,2013-03-13 19:42:00,
2013-03-13 14:47:00,65.1,29.3,30.35,NW,308,12.0,15.0,26,0.00,,,0.00,meteohub,2013-03-13 19:47:00,
2013-03-13 14:52:00,65.1,30.4,30.35,North,350,12.0,16.0,27,0.00,,,0.00,meteohub,2013-03-13 19:52:00,
2013-03-13 14:57:00,65.3,28.6,30.35,NW,314,2.0,18.0,25,0.00,,,0.00,meteohub,2013-03-13 19:57:00,
2013-03-13 15:02:00,65.7,28.9,30.35,WNW,284,7.0,18.0,25,0.00,,,0.00,meteohub,2013-03-13 20:02:00,
2013-03-13 15:07:00,65.5,30.6,30.35,NNW,328,7.0,18.0,27,0.00,,,0.00,meteohub,2013-03-13 20:07:00,
2013-03-13 15:12:00,65.7,29.8,30.35,NNW,346,7.0,15.0,26,0.00,,,0.00,meteohub,2013-03-13 20:12:00,
2013-03-13 15:17:00,65.5,29.7,30.35,NW,314,12.0,15.0,26,0.00,,,0.00,meteohub,2013-03-13 20:17:00,
2013-03-13 15:22:00,65.7,31.6,30.34,WNW,300,22.0,22.0,28,0.00,,,0.00,meteohub,2013-03-13 20:22:00,
2013-03-13 15:27:00,65.5,30.6,30.34,NNE,12,8.0,22.0,27,0.00,,,0.00,meteohub,2013-03-13 20:27:00,
2013-03-13 15:32:00,65.5,31.5,30.34,NNW,336,8.0,22.0,28,0.00,,,0.00,meteohub,2013-03-13 20:32:00,
2013-03-13 15:38:00,65.5,28.8,30.34,NNW,331,9.0,22.0,25,0.00,,,0.00,meteohub,2013-03-13 20:38:00,
2013-03-13 15:43:00,65.7,28.9,30.34,WNW,301,9.0,17.0,25,0.00,,,0.00,meteohub,2013-03-13 20:43:00,
2013-03-13 15:48:00,65.7,27.9,30.33,West,279,7.0,17.0,24,0.00,,,0.00,meteohub,2013-03-13 20:48:00,
2013-03-13 15:53:00,65.7,26.8,30.33,West,272,9.0,17.0,23,0.00,,,0.00,meteohub,2013-03-13 20:53:00,
2013-03-13 15:58:00,65.3,25.5,30.33,NW,315,14.0,18.0,22,0.00,,,0.00,meteohub,2013-03-13 20:58:00,
2013-03-13 16:03:00,65.1,27.5,30.33,NNW,336,10.0,18.0,24,0.00,,,0.00,meteohub,2013-03-13 21:03:00,
2013-03-13 16:08:00,65.1,25.3,30.33,NW,311,9.0,20.0,22,0.00,,,0.00,meteohub,2013-03-13 21:08:00,
2013-03-13 16:13:00,65.1,26.4,30.33,NNE,15,2.0,21.0,23,0.00,,,0.00,meteohub,2013-03-13 21:13:00,
2013-03-13 16:18:00,64.9,25.2,30.33,NW,311,12.0,21.0,22,0.00,,,0.00,meteohub,2013-03-13 21:18:00,
2013-03-13 16:23:00,64.9,27.3,30.33,NW,323,9.0,17.0,24,0.00,,,0.00,meteohub,2013-03-13 21:23:00,
2013-03-13 16:28:00,64.9,27.3,30.33,NW,309,14.0,17.0,24,0.00,,,0.00,meteohub,2013-03-13 21:28:00,
2013-03-13 16:33:00,64.8,27.1,30.33,NW,306,10.0,17.0,24,0.00,,,0.00,meteohub,2013-03-13 21:33:00,
2013-03-13 16:38:00,64.6,27.0,30.32,WNW,296,9.0,22.0,24,0.00,,,0.00,meteohub,2013-03-13 21:38:00,
2013-03-13 16:43:00,64.9,26.2,30.33,NW,304,6.0,22.0,23,0.00,,,0.00,meteohub,2013-03-13 21:43:00,
2013-03-13 16:48:00,65.5,25.7,30.33,NNW,346,7.0,22.0,22,0.00,,,0.00,meteohub,2013-03-13 21:48:00,
2013-03-13 16:53:00,65.5,25.7,30.33,NNE,27,7.0,19.0,22,0.00,,,0.00,meteohub,2013-03-13 21:53:00,
2013-03-13 16:58:00,65.5,28.8,30.33,WNW,285,5.0,19.0,25,0.00,,,0.00,meteohub,2013-03-13 21:58:00,
2013-03-13 17:03:00,65.3,25.5,30.33,NW,316,4.0,17.0,22,0.00,,,0.00,meteohub,2013-03-13 22:03:00,
2013-03-13 17:08:00,65.3,26.6,30.33,North,5,7.0,16.0,23,0.00,,,0.00,meteohub,2013-03-13 22:08:00,
2013-03-13 17:13:00,64.9,26.2,30.33,WNW,302,7.0,16.0,23,0.00,,,0.00,meteohub,2013-03-13 22:13:00,
2013-03-13 17:18:00,64.8,27.1,30.33,North,11,1.0,17.0,24,0.00,,,0.00,meteohub,2013-03-13 22:18:00,
2013-03-13 17:23:00,64.8,23.9,30.33,West,277,7.0,17.0,21,0.00,,,0.00,meteohub,2013-03-13 22:23:00,
2013-03-13 17:28:00,64.6,24.8,30.33,NNW,345,11.0,16.0,22,0.00,,,0.00,meteohub,2013-03-13 22:28:00,
2013-03-13 17:33:00,64.2,25.7,30.33,North,355,11.0,17.0,23,0.00,,,0.00,meteohub,2013-03-13 22:33:00,
2013-03-13 17:38:00,64.2,25.7,30.33,NW,317,5.0,17.0,23,0.00,,,0.00,meteohub,2013-03-13 22:38:00,
2013-03-13 17:43:00,64.2,24.6,30.33,North,5,9.0,17.0,22,0.00,,,0.00,meteohub,2013-03-13 22:43:00,
2013-03-13 17:48:00,64.0,25.5,30.33,WNW,300,6.0,16.0,23,0.00,,,0.00,meteohub,2013-03-13 22:48:00,
2013-03-13 17:53:00,63.9,25.3,30.34,NW,306,9.0,15.0,23,0.00,,,0.00,meteohub,2013-03-13 22:53:00,
2013-03-13 17:58:00,63.7,25.2,30.34,WNW,302,6.0,16.0,23,0.00,,,0.00,meteohub,2013-03-13 22:58:00,
2013-03-13 18:03:00,63.5,26.1,30.34,NW,310,5.0,16.0,24,0.00,,,0.00,meteohub,2013-03-13 23:03:00,
2013-03-13 18:08:00,63.3,23.9,30.34,NW,323,7.0,16.0,22,0.00,,,0.00,meteohub,2013-03-13 23:08:00,
2013-03-13 18:13:00,63.1,23.7,30.34,NW,324,8.0,16.0,22,0.00,,,0.00,meteohub,2013-03-13 23:13:00,
2013-03-13 18:18:00,63.0,24.6,30.34,West,261,4.0,16.0,23,0.00,,,0.00,meteohub,2013-03-13 23:18:00,
2013-03-13 18:23:00,62.8,24.4,30.34,NW,321,7.0,16.0,23,0.00,,,0.00,meteohub,2013-03-13 23:23:00,
2013-03-13 18:28:00,62.6,23.2,30.35,NW,318,6.0,16.0,22,0.00,,,0.00,meteohub,2013-03-13 23:28:00,
2013-03-13 18:33:00,62.4,25.2,30.35,NW,309,4.0,13.0,24,0.00,,,0.00,meteohub,2013-03-13 23:33:00,
2013-03-13 18:38:00,62.1,24.8,30.35,WNW,300,9.0,13.0,24,0.00,,,0.00,meteohub,2013-03-13 23:38:00,
2013-03-13 18:43:00,61.9,24.6,30.35,North,355,4.0,12.0,24,0.00,,,0.00,meteohub,2013-03-13 23:43:00,
2013-03-13 18:48:00,61.7,25.5,30.35,WNW,300,3.0,12.0,25,0.00,,,0.00,meteohub,2013-03-13 23:48:00,
2013-03-13 18:53:00,61.3,25.2,30.35,NNE,13,3.0,12.0,25,0.00,,,0.00,meteohub,2013-03-13 23:53:00,
2013-03-13 18:58:00,61.2,25.0,30.35,NNW,333,1.0,9.0,25,0.00,,,0.00,meteohub,2013-03-13 23:58:00,
2013-03-13 19:04:00,60.6,25.5,30.35,NW,311,7.0,10.0,26,0.00,,,0.00,meteohub,2013-03-14 00:04:00,
2013-03-13 19:09:00,60.3,26.1,30.35,WNW,285,3.0,10.0,27,0.00,,,0.00,meteohub,2013-03-14 00:09:00,
2013-03-13 19:14:00,59.7,25.7,30.35,NNW,338,2.0,9.0,27,0.00,,,0.00,meteohub,2013-03-14 00:14:00,
2013-03-13 19:19:00,59.5,25.5,30.36,NNW,336,0.0,9.0,27,0.00,,,0.00,meteohub,2013-03-14 00:19:00,
2013-03-13 19:24:00,59.2,26.1,30.36,NNW,336,2.0,8.0,28,0.00,,,0.00,meteohub,2013-03-14 00:24:00,
2013-03-13 19:29:00,58.8,26.6,30.36,NNW,342,1.0,5.0,29,0.00,,,0.00,meteohub,2013-03-14 00:29:00,
2013-03-13 19:34:00,58.5,27.1,30.36,NNW,346,1.0,4.0,30,0.00,,,0.00,meteohub,2013-03-14 00:34:00,
2013-03-13 19:39:00,58.3,27.0,30.36,North,349,0.0,4.0,30,0.00,,,0.00,meteohub,2013-03-14 00:39:00,
2013-03-13 19:44:00,57.7,30.2,30.36,North,349,0.0,3.0,35,0.00,,,0.00,meteohub,2013-03-14 00:44:00,
2013-03-13 19:49:00,57.4,29.3,30.36,North,349,0.0,3.0,34,0.00,,,0.00,meteohub,2013-03-14 00:49:00,
2013-03-13 19:54:00,57.0,28.9,30.36,NNW,344,1.0,3.0,34,0.00,,,0.00,meteohub,2013-03-14 00:54:00,
2013-03-13 19:59:00,56.7,28.6,30.36,NNW,344,2.0,3.0,34,0.00,,,0.00,meteohub,2013-03-14 00:59:00,
2013-03-13 20:04:00,56.5,28.4,30.36,NNW,344,2.0,3.0,34,0.00,,,0.00,meteohub,2013-03-14 01:04:00,
2013-03-13 20:09:00,56.5,27.7,30.36,NNW,342,1.0,3.0,33,0.00,,,0.00,meteohub,2013-03-14 01:09:00,
2013-03-13 20:14:00,56.5,28.4,30.36,NNW,342,0.0,4.0,34,0.00,,,0.00,meteohub,2013-03-14 01:14:00,
2013-03-13 20:19:00,56.1,28.0,30.36,NNW,329,1.0,4.0,34,0.00,,,0.00,meteohub,2013-03-14 01:19:00,
2013-03-13 20:24:00,56.1,28.0,30.36,NNW,330,0.0,4.0,34,0.00,,,0.00,meteohub,2013-03-14 01:24:00,
2013-03-13 20:29:00,55.9,28.8,30.36,NNW,330,0.0,3.0,35,0.00,,,0.00,meteohub,2013-03-14 01:29:00,
2013-03-13 20:34:00,55.8,29.8,30.36,NNW,330,1.0,3.0,37,0.00,,,0.00,meteohub,2013-03-14 01:34:00,
2013-03-13 20:39:00,55.4,28.2,30.36,NNW,330,0.0,3.0,35,0.00,,,0.00,meteohub,2013-03-14 01:39:00,
2013-03-13 20:44:00,55.2,29.5,30.36,NNW,330,0.0,3.0,37,0.00,,,0.00,meteohub,2013-03-14 01:44:00,
2013-03-13 20:49:00,55.0,29.8,30.36,NNW,330,1.0,3.0,38,0.00,,,0.00,meteohub,2013-03-14 01:49:00,
2013-03-13 20:54:00,54.9,30.4,30.36,NNW,330,1.0,3.0,39,0.00,,,0.00,meteohub,2013-03-14 01:54:00,
2013-03-13 20:59:00,54.7,30.2,30.37,NNW,333,1.0,2.0,39,0.00,,,0.00,meteohub,2013-03-14 01:59:00,
2013-03-13 21:04:00,54.3,32.4,30.37,NNW,333,0.0,2.0,43,0.00,,,0.00,meteohub,2013-03-14 02:04:00,
2013-03-13 21:09:00,54.0,31.5,30.37,NNE,26,0.0,2.0,42,0.00,,,0.00,meteohub,2013-03-14 02:09:00,
2013-03-13 21:14:00,53.6,30.4,30.38,NNE,23,1.0,2.0,41,0.00,,,0.00,meteohub,2013-03-14 02:14:00,
2013-03-13 21:19:00,53.2,31.3,30.38,NNE,23,0.0,2.0,43,0.00,,,0.00,meteohub,2013-03-14 02:19:00,
2013-03-13 21:24:00,53.1,32.4,30.38,NNE,23,0.0,3.0,45,0.00,,,0.00,meteohub,2013-03-14 02:24:00,
2013-03-13 21:29:00,52.7,32.5,30.38,NNE,23,0.0,3.0,46,0.00,,,0.00,meteohub,2013-03-14 02:29:00,
2013-03-13 21:34:00,52.5,32.9,30.38,NNE,23,0.0,3.0,47,0.00,,,0.00,meteohub,2013-03-14 02:34:00,
2013-03-13 21:39:00,52.3,32.2,30.38,NNE,23,0.0,3.0,46,0.00,,,0.00,meteohub,2013-03-14 02:39:00,
2013-03-13 21:44:00,52.2,32.0,30.39,NNE,23,0.0,2.0,46,0.00,,,0.00,meteohub,2013-03-14 02:44:00,
2013-03-13 21:49:00,52.0,31.8,30.39,NNE,23,0.0,2.0,46,0.00,,,0.00,meteohub,2013-03-14 02:49:00,
2013-03-13 21:54:00,51.8,31.6,30.39,NNE,23,0.0,2.0,46,0.00,,,0.00,meteohub,2013-03-14 02:54:00,
2013-03-13 21:59:00,51.4,30.7,30.39,NNE,23,0.0,1.0,45,0.00,,,0.00,meteohub,2013-03-14 02:59:00,
2013-03-13 22:04:00,51.3,30.6,30.40,NNE,23,0.0,0.0,45,0.00,,,0.00,meteohub,2013-03-14 03:04:00,
2013-03-13 22:09:00,51.1,32.0,30.40,NNE,23,0.0,0.0,48,0.00,,,0.00,meteohub,2013-03-14 03:09:00,
2013-03-13 22:15:00,50.7,33.3,30.40,NNE,23,0.0,0.0,51,0.00,,,0.00,meteohub,2013-03-14 03:15:00,
2013-03-13 22:20:00,50.7,31.8,30.40,NE,50,0.0,1.0,48,0.00,,,0.00,meteohub,2013-03-14 03:20:00,
2013-03-13 22:25:00,50.5,32.0,30.40,NE,50,0.0,3.0,49,0.00,,,0.00,meteohub,2013-03-14 03:25:00,
2013-03-13 22:30:00,50.4,31.5,30.40,NE,50,0.0,3.0,48,0.00,,,0.00,meteohub,2013-03-14 03:30:00,
2013-03-13 22:35:00,50.2,31.3,30.40,NE,50,0.0,3.0,48,0.00,,,0.00,meteohub,2013-03-14 03:35:00,
2013-03-13 22:40:00,50.2,31.8,30.41,NE,50,0.0,0.0,49,0.00,,,0.00,meteohub,2013-03-14 03:40:00,
2013-03-13 22:45:00,49.8,30.9,30.41,NE,50,0.0,0.0,48,0.00,,,0.00,meteohub,2013-03-14 03:45:00,
2013-03-13 22:50:00,49.6,31.3,30.41,NE,50,0.0,0.0,49,0.00,,,0.00,meteohub,2013-03-14 03:50:00,
2013-03-13 22:55:00,49.5,31.6,30.41,NE,50,0.0,0.0,50,0.00,,,0.00,meteohub,2013-03-14 03:55:00,
2013-03-13 23:00:00,49.1,30.7,30.41,NE,50,0.0,0.0,49,0.00,,,0.00,meteohub,2013-03-14 04:00:00,
2013-03-13 23:02:00,48.9,31.1,30.41,NE,50,0.0,0.0,50,0.00,,,0.00,meteohub,2013-03-14 04:02:00,
2013-03-13 23:07:00,48.7,30.9,30.41,NE,50,0.0,0.0,50,0.00,,,0.00,meteohub,2013-03-14 04:07:00,
2013-03-13 23:12:00,48.9,31.1,30.41,NE,50,0.0,0.0,50,0.00,,,0.00,meteohub,2013-03-14 04:12:00,
2013-03-13 23:17:00,48.9,31.6,30.41,NE,50,0.0,0.0,51,0.00,,,0.00,meteohub,2013-03-14 04:17:00,
2013-03-13 23:22:00,48.7,31.8,30.41,NE,50,0.0,0.0,52,0.00,,,0.00,meteohub,2013-03-14 04:22:00,
2013-03-13 23:27:00,48.7,31.8,30.41,NE,50,0.0,0.0,52,0.00,,,0.00,meteohub,2013-03-14 04:27:00,
2013-03-13 23:32:00,48.4,31.6,30.41,NE,50,0.0,0.0,52,0.00,,,0.00,meteohub,2013-03-14 04:32:00,
2013-03-13 23:37:00,48.0,32.2,30.41,NE,50,0.0,0.0,54,0.00,,,0.00,meteohub,2013-03-14 04:37:00,
2013-03-13 23:42:00,47.8,31.5,30.41,NE,50,0.0,0.0,53,0.00,,,0.00,meteohub,2013-03-14 04:42:00,
2013-03-13 23:47:00,47.7,30.9,30.41,NE,50,0.0,0.0,52,0.00,,,0.00,meteohub,2013-03-14 04:47:00,
2013-03-13 23:52:00,47.5,31.3,30.41,NE,50,0.0,0.0,53,0.00,,,0.00,meteohub,2013-03-14 04:52:00,
2013-03-13 23:57:00,47.3,32.0,30.41,NE,50,0.0,0.0,55,0.00,,,0.00,meteohub,2013-03-14 04:57:00,